createdAt,value
2022-12-26T00:02:48.062Z,84.23
2022-12-26T00:05:30.381Z,84.94
2022-12-26T00:08:19.055Z,84.71
2022-12-26T00:11:01.330Z,84.53
2022-12-26T00:13:50.203Z,85.61
2022-12-26T00:16:34.524Z,85.58
2022-12-26T00:19:23.089Z,83.90
2022-12-26T00:22:12.140Z,83.50
2022-12-26T00:25:02.089Z,83.26
2022-12-26T00:27:44.398Z,83.52
2022-12-26T00:30:33.040Z,83.53
2022-12-26T00:33:15.433Z,83.72
2022-12-26T00:36:09.958Z,82.48
2022-12-26T00:38:53.484Z,82.28
2022-12-26T00:41:42.043Z,82.33
2022-12-26T00:44:24.385Z,82.05
2022-12-26T00:47:19.021Z,82.75
2022-12-26T00:50:12.450Z,81.84
2022-12-26T00:52:57.078Z,81.78
2022-12-26T00:55:39.360Z,82.12
2022-12-26T00:58:28.148Z,80.85
2022-12-26T01:01:21.805Z,82.27
2022-12-26T01:04:13.034Z,82.06
2022-12-26T01:07:02.133Z,82.26
2022-12-26T01:09:44.385Z,81.46
2022-12-26T01:12:33.131Z,81.51
2022-12-26T01:15:16.421Z,80.69
2022-12-26T01:18:07.108Z,82.17
2022-12-26T01:20:56.057Z,82.75
2022-12-26T01:23:44.369Z,82.60
2022-12-26T01:26:26.993Z,82.83
2022-12-26T01:29:17.367Z,82.44
2022-12-26T01:31:59.155Z,82.06
2022-12-26T01:34:41.310Z,81.44
2022-12-26T01:37:31.121Z,81.80
2022-12-26T01:40:14.287Z,81.51
2022-12-26T01:43:03.022Z,81.77
2022-12-26T01:45:50.589Z,81.47
2022-12-26T01:48:45.055Z,80.11
2022-12-26T01:51:38.115Z,80.42
2022-12-26T01:54:41.253Z,80.14
2022-12-26T01:57:36.390Z,80.43
2022-12-26T02:00:20.067Z,79.30
2022-12-26T02:03:20.470Z,80.37
2022-12-26T02:06:12.120Z,80.98
2022-12-26T02:08:55.519Z,81.08
2022-12-26T02:12:34.323Z,82.43
2022-12-26T02:15:26.110Z,81.60
2022-12-26T02:18:08.356Z,81.26
2022-12-26T02:21:32.120Z,80.75
2022-12-26T02:24:58.105Z,80.94
2022-12-26T02:28:01.541Z,80.58
2022-12-26T02:31:38.168Z,80.92
2022-12-26T02:34:41.304Z,79.97
2022-12-26T02:37:32.042Z,80.26
2022-12-26T02:40:35.709Z,81.13
2022-12-26T02:43:46.123Z,80.47
2022-12-26T02:47:06.237Z,80.25
2022-12-26T02:50:26.021Z,79.61
2022-12-26T02:53:35.023Z,80.35
2022-12-26T02:56:59.062Z,80.00
2022-12-26T03:00:11.097Z,79.43
2022-12-26T03:03:23.595Z,80.79
2022-12-26T03:06:51.958Z,79.28
2022-12-26T03:09:56.657Z,79.40
2022-12-26T03:13:08.087Z,79.68
2022-12-26T03:16:21.026Z,79.65
2022-12-26T03:19:13.930Z,81.18
2022-12-26T03:21:57.335Z,81.52
2022-12-26T03:25:12.001Z,80.58
2022-12-26T03:27:55.412Z,79.53
2022-12-26T03:31:00.063Z,80.04
2022-12-26T03:34:09.998Z,80.54
2022-12-26T03:37:23.377Z,79.96
2022-12-26T03:40:30.132Z,80.58
2022-12-26T03:44:14.911Z,80.87
2022-12-26T03:47:24.944Z,80.47
2022-12-26T03:50:48.712Z,79.00
2022-12-26T03:54:00.093Z,79.85
2022-12-26T03:57:13.727Z,79.49
2022-12-26T04:00:36.019Z,79.17
2022-12-26T04:03:47.067Z,78.60
2022-12-26T04:06:59.160Z,79.19
2022-12-26T04:10:23.205Z,79.05
2022-12-26T04:13:27.112Z,77.35
2022-12-26T04:16:49.405Z,78.70
2022-12-26T04:19:43.035Z,78.57
2022-12-26T04:23:16.088Z,78.71
2022-12-26T04:26:30.301Z,78.99
2022-12-26T04:29:37.069Z,78.72
2022-12-26T04:33:10.015Z,78.12
2022-12-26T04:36:31.960Z,78.65
2022-12-26T04:39:38.591Z,77.40
2022-12-26T04:42:47.016Z,78.78
2022-12-26T04:45:37.017Z,76.93
2022-12-26T04:48:50.945Z,77.24
2022-12-26T04:51:45.920Z,76.84
2022-12-26T04:54:29.148Z,75.56
2022-12-26T04:57:19.080Z,75.87
2022-12-26T05:00:01.256Z,76.65
2022-12-26T05:03:09.390Z,75.94
2022-12-26T05:06:12.675Z,74.83
2022-12-26T05:09:20.021Z,74.10
2022-12-26T05:12:06.839Z,73.69
2022-12-26T05:14:56.433Z,72.93
2022-12-26T05:17:56.319Z,73.73
2022-12-26T05:20:53.964Z,72.71
2022-12-26T05:24:01.947Z,71.49
2022-12-26T05:27:02.496Z,71.88
2022-12-26T05:29:51.020Z,71.88
2022-12-26T05:32:57.607Z,72.00
2022-12-26T05:35:40.965Z,71.15
2022-12-26T05:38:30.023Z,71.30
2022-12-26T05:41:12.360Z,71.03
2022-12-26T05:44:01.030Z,69.34
2022-12-26T05:46:51.095Z,69.06
2022-12-26T05:49:39.883Z,67.87
2022-12-26T05:52:29.167Z,68.26
2022-12-26T05:55:11.517Z,68.52
2022-12-26T05:58:00.109Z,66.43
2022-12-26T06:00:42.142Z,66.06
2022-12-26T06:03:31.175Z,67.91
2022-12-26T06:06:19.311Z,67.29
2022-12-26T06:09:04.108Z,66.17
2022-12-26T06:11:49.143Z,67.26
2022-12-26T06:14:38.934Z,65.05
2022-12-26T06:17:27.355Z,63.73
2022-12-26T06:20:10.058Z,64.89
2022-12-26T06:22:52.198Z,63.92
2022-12-26T06:25:41.081Z,64.48
2022-12-26T06:28:24.671Z,64.65
2022-12-26T06:31:23.984Z,63.28
2022-12-26T06:34:13.051Z,64.44
2022-12-26T06:36:56.522Z,63.18
2022-12-26T06:39:44.964Z,63.57
2022-12-26T06:42:33.908Z,62.61
2022-12-26T06:45:16.945Z,62.50
2022-12-26T06:48:06.908Z,62.12
2022-12-26T06:51:05.058Z,62.23
2022-12-26T06:53:47.733Z,61.48
2022-12-26T06:56:42.415Z,60.98
2022-12-26T06:59:31.248Z,61.71
2022-12-26T07:02:14.179Z,60.02
2022-12-26T07:05:02.352Z,59.76
2022-12-26T07:07:45.012Z,60.40
2022-12-26T07:10:27.212Z,60.24
2022-12-26T07:13:17.064Z,59.22
2022-12-26T07:16:02.385Z,60.18
2022-12-26T07:18:52.064Z,61.78
2022-12-26T07:21:42.991Z,62.89
2022-12-26T07:24:28.350Z,61.73
2022-12-26T07:27:17.022Z,60.47
2022-12-26T07:29:59.308Z,59.66
2022-12-26T07:32:48.068Z,61.29
2022-12-26T07:35:30.286Z,60.65
2022-12-26T07:38:19.922Z,60.36
2022-12-26T07:41:26.023Z,59.56
2022-12-26T07:44:14.908Z,58.71
2022-12-26T07:46:58.295Z,58.79
2022-12-26T07:49:47.062Z,57.53
2022-12-26T07:52:29.255Z,58.62
2022-12-26T07:55:18.090Z,58.08
2022-12-26T07:58:01.307Z,58.45
2022-12-26T08:00:50.424Z,57.28
2022-12-26T08:03:32.306Z,57.92
2022-12-26T08:06:21.002Z,57.92
2022-12-26T08:09:03.321Z,58.38
2022-12-26T08:11:53.062Z,58.91
2022-12-26T08:14:35.322Z,58.27
2022-12-26T08:17:24.061Z,58.03
2022-12-26T08:20:08.311Z,57.84
2022-12-26T08:25:40.582Z,59.02
2022-12-26T08:28:30.105Z,59.15
2022-12-26T08:31:17.373Z,59.04
2022-12-26T08:34:06.053Z,58.65
2022-12-26T08:36:49.362Z,58.38
2022-12-26T08:39:38.067Z,59.00
2022-12-26T08:42:20.276Z,58.82
2022-12-26T08:45:09.029Z,58.09
2022-12-26T08:47:51.237Z,58.01
2022-12-26T08:50:41.617Z,58.12
2022-12-26T08:53:25.235Z,58.06
2022-12-26T08:56:16.087Z,58.17
2022-12-26T08:58:58.305Z,58.65
2022-12-26T09:01:48.156Z,58.23
2022-12-26T09:04:30.191Z,58.49
2022-12-26T09:07:18.983Z,58.84
2022-12-26T09:10:01.341Z,58.77
2022-12-26T09:12:50.026Z,59.33
2022-12-26T09:15:32.346Z,59.52
2022-12-26T09:18:20.891Z,59.53
2022-12-26T09:21:09.863Z,60.12
2022-12-26T09:23:59.358Z,60.15
2022-12-26T09:26:41.946Z,60.40
2022-12-26T09:29:24.102Z,59.54
2022-12-26T09:32:12.969Z,60.09
2022-12-26T09:35:02.238Z,60.37
2022-12-26T09:37:45.062Z,60.48
2022-12-26T09:40:40.845Z,60.28
2022-12-26T09:44:13.924Z,60.43
2022-12-26T09:47:18.316Z,60.80
2022-12-26T09:50:15.985Z,60.68
2022-12-26T09:53:02.080Z,60.73
2022-12-26T09:56:08.646Z,61.44
2022-12-26T09:59:10.328Z,61.22
2022-12-26T10:01:56.926Z,61.65
2022-12-26T10:05:02.105Z,62.55
2022-12-26T10:08:26.874Z,62.22
2022-12-26T10:11:29.926Z,62.39
2022-12-26T10:14:39.339Z,62.66
2022-12-26T10:17:28.022Z,63.36
2022-12-26T10:20:26.635Z,63.82
2022-12-26T10:23:47.969Z,63.67
2022-12-26T10:27:10.270Z,63.70
2022-12-26T10:30:07.923Z,64.06
2022-12-26T10:33:03.892Z,63.72
2022-12-26T10:35:52.308Z,63.84
2022-12-26T10:38:51.940Z,64.31
2022-12-26T10:41:55.292Z,64.73
2022-12-26T10:44:44.004Z,64.92
2022-12-26T10:47:38.317Z,64.71
2022-12-26T10:50:31.896Z,64.44
2022-12-26T10:53:20.347Z,64.80
2022-12-26T10:56:14.698Z,65.27
2022-12-26T10:59:15.974Z,65.77
2022-12-26T11:02:21.431Z,66.36
2022-12-26T11:08:54.471Z,66.58
2022-12-26T11:11:54.027Z,66.63
2022-12-26T11:14:51.271Z,67.58
2022-12-26T11:17:37.007Z,67.09
2022-12-26T11:20:25.258Z,67.98
2022-12-26T11:23:26.100Z,67.71
2022-12-26T11:26:32.355Z,68.11
2022-12-26T11:29:28.878Z,68.88
2022-12-26T11:32:27.358Z,67.68
2022-12-26T11:35:10.060Z,68.48
2022-12-26T11:38:06.663Z,68.51
2022-12-26T11:41:16.989Z,68.21
2022-12-26T11:44:06.152Z,68.71
2022-12-26T11:47:00.198Z,68.99
2022-12-26T11:50:25.291Z,69.73
2022-12-26T11:53:07.880Z,69.14
2022-12-26T11:56:08.248Z,69.54
2022-12-26T11:58:57.006Z,69.62
2022-12-26T12:01:46.313Z,70.26
2022-12-26T12:04:28.910Z,69.80
2022-12-26T12:07:22.909Z,70.51
2022-12-26T12:10:08.446Z,70.77
2022-12-26T12:13:11.958Z,70.53
2022-12-26T12:16:02.428Z,70.04
2022-12-26T12:19:02.974Z,71.73
2022-12-26T12:21:51.294Z,71.52
2022-12-26T12:24:47.066Z,71.27
2022-12-26T12:27:41.221Z,71.13
2022-12-26T12:30:32.018Z,71.00
2022-12-26T12:33:33.655Z,71.07
2022-12-26T12:37:01.071Z,71.99
2022-12-26T12:40:13.281Z,71.57
2022-12-26T12:43:22.017Z,71.54
2022-12-26T12:46:35.506Z,72.67
2022-12-26T12:49:54.879Z,72.34
2022-12-26T12:53:05.259Z,73.12
2022-12-26T12:56:07.866Z,72.79
2022-12-26T12:59:13.034Z,72.62
2022-12-26T13:02:05.432Z,72.50
2022-12-26T13:05:06.043Z,72.89
2022-12-26T13:07:53.250Z,73.31
2022-12-26T13:10:45.873Z,72.99
2022-12-26T13:13:39.716Z,73.91
2022-12-26T13:16:42.066Z,72.84
2022-12-26T13:19:52.054Z,73.69
2022-12-26T13:23:07.938Z,73.51
2022-12-26T13:26:03.024Z,73.27
2022-12-26T13:29:03.024Z,72.54
2022-12-26T13:31:47.461Z,72.78
2022-12-26T13:34:36.887Z,72.68
2022-12-26T13:37:51.977Z,72.43
2022-12-26T13:40:34.404Z,72.17
2022-12-26T13:43:57.993Z,72.30
2022-12-26T13:46:43.307Z,72.79
2022-12-26T13:49:48.429Z,73.02
2022-12-26T13:52:43.303Z,72.57
2022-12-26T13:55:24.905Z,72.70
2022-12-26T13:58:34.265Z,72.72
2022-12-26T14:01:43.038Z,73.78
2022-12-26T14:04:41.132Z,72.80
2022-12-26T14:08:13.281Z,72.61
2022-12-26T14:11:28.942Z,73.35
2022-12-26T14:14:39.271Z,73.52
2022-12-26T14:17:42.969Z,74.33
2022-12-26T14:20:39.751Z,74.77
2022-12-26T14:23:48.989Z,74.98
2022-12-26T14:27:00.517Z,76.13
2022-12-26T14:30:27.002Z,75.90
2022-12-26T14:33:34.998Z,76.59
2022-12-26T14:36:32.205Z,76.58
2022-12-26T14:39:32.976Z,77.53
2022-12-26T14:42:41.008Z,78.75
2022-12-26T14:45:44.952Z,79.47
2022-12-26T14:48:36.848Z,80.66
2022-12-26T14:51:28.361Z,81.27
2022-12-26T14:54:30.010Z,80.96
2022-12-26T14:57:50.540Z,82.01
2022-12-26T15:00:37.855Z,82.35
2022-12-26T15:03:32.301Z,82.31
2022-12-26T15:06:39.993Z,82.56
2022-12-26T15:09:52.736Z,83.11
2022-12-26T15:13:10.279Z,83.23
2022-12-26T15:16:29.268Z,83.85
2022-12-26T15:19:35.954Z,83.34
2022-12-26T15:22:29.827Z,85.13
2022-12-26T15:25:55.950Z,83.14
2022-12-26T15:28:48.158Z,83.37
2022-12-26T15:32:09.841Z,82.94
2022-12-26T15:34:57.703Z,82.50
2022-12-26T15:38:02.987Z,83.51
2022-12-26T15:41:17.265Z,83.28
2022-12-26T15:44:24.003Z,83.39
2022-12-26T15:47:44.978Z,82.83
2022-12-26T15:50:33.235Z,83.15
2022-12-26T15:53:26.975Z,82.65
2022-12-26T15:56:51.949Z,82.00
2022-12-26T16:00:07.245Z,83.82
2022-12-26T16:03:02.943Z,83.93
2022-12-26T16:06:25.260Z,84.00
2022-12-26T16:09:25.952Z,83.86
2022-12-26T16:12:09.191Z,83.96
2022-12-26T16:14:59.150Z,82.85
2022-12-26T16:17:41.208Z,83.61
2022-12-26T16:20:50.972Z,83.28
2022-12-26T16:23:36.154Z,85.15
2022-12-26T16:26:36.916Z,85.75
2022-12-26T16:29:26.152Z,84.33
2022-12-26T16:32:16.198Z,84.22
2022-12-26T16:34:58.208Z,84.10
2022-12-26T16:37:46.782Z,83.25
2022-12-26T16:40:48.210Z,84.94
2022-12-26T16:43:32.923Z,84.71
2022-12-26T16:46:16.008Z,85.50
2022-12-26T16:49:11.872Z,85.07
2022-12-26T16:52:03.027Z,85.63
2022-12-26T16:54:48.183Z,85.36
2022-12-26T16:57:36.933Z,84.32
2022-12-26T17:00:26.239Z,83.69
2022-12-26T17:03:25.883Z,84.38
2022-12-26T17:06:12.215Z,83.85
2022-12-26T17:09:01.937Z,84.06
2022-12-26T17:11:53.235Z,84.10
2022-12-26T17:14:48.992Z,83.52
2022-12-26T17:17:31.154Z,83.74
2022-12-26T17:20:37.256Z,84.07
2022-12-26T17:23:44.713Z,83.81
2022-12-26T17:26:37.808Z,83.51
2022-12-26T17:29:44.183Z,84.02
2022-12-26T17:32:40.814Z,83.80
2022-12-26T17:35:41.447Z,82.70
2022-12-26T17:38:40.817Z,82.74
2022-12-26T17:41:25.198Z,82.29
2022-12-26T17:44:52.847Z,82.48
2022-12-26T17:47:36.270Z,82.64
2022-12-26T17:50:24.949Z,82.82
2022-12-26T17:53:45.847Z,82.86
2022-12-26T17:56:34.239Z,83.07
2022-12-26T17:59:22.892Z,83.38
2022-12-26T18:02:11.316Z,82.64
2022-12-26T18:04:54.944Z,83.22
2022-12-26T18:07:43.179Z,83.99
2022-12-26T18:10:30.855Z,83.90
2022-12-26T18:13:24.236Z,84.33
2022-12-26T18:16:07.054Z,82.38
2022-12-26T18:18:56.187Z,83.24
2022-12-26T18:21:37.953Z,83.03
2022-12-26T18:24:26.801Z,83.58
2022-12-26T18:27:15.808Z,82.18
2022-12-26T18:30:05.490Z,82.41
2022-12-26T18:32:48.899Z,82.05
2022-12-26T18:35:31.205Z,81.81
2022-12-26T18:38:19.782Z,81.86
2022-12-26T18:41:03.477Z,81.04
2022-12-26T18:43:51.853Z,81.16
2022-12-26T18:46:47.900Z,81.32
2022-12-26T18:49:43.762Z,80.81
2022-12-26T18:52:32.880Z,81.21
2022-12-26T18:55:16.459Z,81.74
2022-12-26T18:58:04.890Z,81.38
2022-12-26T19:00:47.192Z,81.63
2022-12-26T19:03:36.023Z,81.47
2022-12-26T19:06:26.315Z,82.47
2022-12-26T19:09:14.838Z,82.87
2022-12-26T19:12:03.904Z,82.87
2022-12-26T19:14:47.134Z,82.28
2022-12-26T19:17:35.796Z,82.22
2022-12-26T19:20:27.944Z,82.06
2022-12-26T19:23:10.175Z,82.79
2022-12-26T19:25:58.867Z,82.71
2022-12-26T19:28:47.879Z,82.79
2022-12-26T19:31:30.306Z,81.87
2022-12-26T19:34:18.921Z,82.71
2022-12-26T19:37:01.111Z,81.89
2022-12-26T19:39:50.807Z,82.03
2022-12-26T19:42:39.527Z,82.49
2022-12-26T19:45:22.951Z,82.21
2022-12-26T19:48:12.144Z,82.21
2022-12-26T19:51:00.842Z,82.14
2022-12-26T19:53:50.839Z,81.39
2022-12-26T19:56:39.865Z,80.91
2022-12-26T19:59:22.150Z,79.75
2022-12-26T20:02:10.962Z,82.52
2022-12-26T20:04:53.189Z,80.86
2022-12-26T20:07:42.948Z,81.46
2022-12-26T20:10:25.176Z,80.22
2022-12-26T20:13:13.945Z,80.03
2022-12-26T20:15:56.116Z,79.96
2022-12-26T20:18:46.038Z,81.08
2022-12-26T20:21:28.213Z,80.94
2022-12-26T20:24:19.876Z,80.24
2022-12-26T20:27:08.784Z,81.18
2022-12-26T20:29:57.881Z,80.44
2022-12-26T20:32:44.992Z,79.63
2022-12-26T20:35:33.899Z,80.01
2022-12-26T20:38:16.156Z,80.88
2022-12-26T20:41:04.823Z,81.17
2022-12-26T20:43:48.235Z,81.87
2022-12-26T20:46:41.860Z,81.13
2022-12-26T20:49:24.259Z,80.89
2022-12-26T20:52:12.751Z,80.68
2022-12-26T20:54:55.437Z,80.40
2022-12-26T20:57:43.927Z,79.54
2022-12-26T21:00:26.134Z,80.31
2022-12-26T21:03:14.927Z,80.93
2022-12-26T21:05:57.185Z,81.32
2022-12-26T21:08:46.907Z,80.92
2022-12-26T21:11:32.167Z,80.36
2022-12-26T21:14:24.868Z,82.05
2022-12-26T21:17:07.339Z,81.06
2022-12-26T21:19:55.773Z,82.01
2022-12-26T21:22:38.101Z,82.86
2022-12-26T21:25:26.863Z,82.84
2022-12-26T21:28:09.080Z,82.75
2022-12-26T21:30:57.898Z,82.26
2022-12-26T21:33:44.436Z,81.42
2022-12-26T21:36:34.788Z,81.09
2022-12-26T21:39:18.422Z,81.60
2022-12-26T21:42:06.832Z,80.17
2022-12-26T21:44:49.167Z,81.19
2022-12-26T21:47:37.755Z,80.26
2022-12-26T21:50:27.294Z,80.22
2022-12-26T21:53:09.848Z,80.50
2022-12-26T21:55:51.977Z,80.90
2022-12-26T21:59:00.747Z,80.87
2022-12-26T22:01:49.875Z,82.34
2022-12-26T22:04:38.840Z,81.58
2022-12-26T22:07:21.039Z,80.91
2022-12-26T22:10:09.964Z,81.64
2022-12-26T22:12:58.178Z,81.50
2022-12-26T22:15:58.941Z,80.95
2022-12-26T22:18:55.058Z,81.27
2022-12-26T22:21:36.868Z,81.97
2022-12-26T22:24:25.197Z,81.46
2022-12-26T22:27:06.897Z,80.79
2022-12-26T22:29:55.207Z,80.91
2022-12-26T22:32:37.859Z,81.19
2022-12-26T22:35:26.121Z,81.52
2022-12-26T22:38:07.707Z,80.42
2022-12-26T22:41:04.164Z,80.81
2022-12-26T22:43:46.838Z,80.60
2022-12-26T22:46:29.132Z,80.73
2022-12-26T22:49:17.793Z,79.73
2022-12-26T22:52:15.893Z,80.44
2022-12-26T22:55:04.164Z,80.52
2022-12-26T22:57:51.064Z,80.48
2022-12-26T23:00:41.188Z,80.84
2022-12-26T23:03:23.888Z,80.91
2022-12-26T23:06:23.255Z,81.77
2022-12-26T23:09:07.790Z,81.50
2022-12-26T23:12:14.748Z,81.79
2022-12-26T23:15:03.701Z,80.72
2022-12-26T23:18:40.099Z,81.19
2022-12-26T23:21:51.788Z,80.79
2022-12-26T23:24:34.942Z,80.68
2022-12-26T23:27:42.877Z,80.12
2022-12-26T23:30:26.952Z,80.54
2022-12-26T23:33:15.945Z,80.25
2022-12-26T23:35:58.095Z,79.49
2022-12-26T23:38:46.817Z,79.65
2022-12-26T23:41:29.009Z,80.28
2022-12-26T23:44:17.872Z,80.50
2022-12-26T23:47:00.118Z,80.90
2022-12-26T23:49:48.773Z,81.68
2022-12-26T23:52:38.116Z,80.73
2022-12-26T23:55:20.898Z,81.28
2022-12-26T23:58:10.650Z,81.43
